Aeroporto :
LOGIN :

Iscrizione | Disclaimer

   EN    FR    IT 

 










Sommario :    VFR   VFR Marginale   IFR   IFR Intensivo   IFR Molto Intensivo
Visibilità : 
Base nubi : 
>= 8 km
>= 3000ft
5 / 8 km
1000 / 3000 ft
1500m / 5 km
500 / 1000 ft
800 / 1500m
200 / 500 ft
< 800m
< 200 ft
Simboli :   Temporali  Nebbia  Neve Forte  Precipitazioni Forti  Vento > 20 kt
SIGMETs :   Varie  Temporali  Ghiacco  Turbolenza  Onda orograficha  Ceneri Vulcaniche







- Altitudine del aeroporto : 325 ft
- Codice IATA : BES
- Carte del aeroporto


LFRB - Brest

ULTIMO METAR :
  • 190800Z AUTO 00000KT 9999 SCT024 BKN070 OVC100 08/08 Q1029

METARs OBSOLETI :
  • 190730Z AUTO 24002KT 9999 BKN024 BKN030 OVC100 08/07 Q1029
  • 190700Z AUTO VRB01KT 9000 FEW019 BKN033 OVC098 07/07 Q1028
  • 190630Z AUTO 32002KT 9000 BKN023 OVC028 08/07 Q1028
  • 190600Z AUTO 27003KT 5000 BR FEW011 OVC034 07/07 Q1028
  • 190530Z AUTO 25003KT 4900 BR FEW010 BKN021 BKN028 07/06 Q1028

TAF TAF LFRB
Valido dal 18 a 06 ore il 19 a 12 ore UTC


180500Z 1806/1912 30010KT 9999 FEW025 BKN040
TEMPO 1806/1824 30015G25KT SHRA BKN010TCU
TEMPO 1904/1906 3000 RADZ OVC015
ATIS : +33 2 98 32 02 71
Nessun NOTAM noto per questo aeroporto.



MetMap, La meteo Aeronautica in un colpo d'occhio ! - Copyright ORBIFLY Dicembre 2007 - Disclaimer

ORBIFLY MET'MAP TEAM :

Programmazione e sviluppo : Alexandra Zaïnal
Concezione e sviluppo : Baudouin d'Aumeries
Co-Programmazione e sviluppo : Marc-Olivier Méhu
Supporto tecnico e logistico : Manuel Goepfert
Aiuto per la traduzione : Arnaldo La Scala

Contatto : metmap@orbifly.com




FONTI E CREDITI :

   NOAA